sensor_id;sensor_type;location;lat;lon;timestamp;P1;durP1;ratioP1;P2;durP2;ratioP2
43710;SDS011;29309;42.682;23.372;2023-04-29T00:00:18;8.35;;;3.25;;
43710;SDS011;29309;42.682;23.372;2023-04-29T00:02:44;6.93;;;3.47;;
43710;SDS011;29309;42.682;23.372;2023-04-29T00:05:10;6.53;;;2.83;;
43710;SDS011;29309;42.682;23.372;2023-04-29T00:07:35;6.95;;;3.15;;
43710;SDS011;29309;42.682;23.372;2023-04-29T00:10:01;11.43;;;3.42;;
43710;SDS011;29309;42.682;23.372;2023-04-29T00:12:27;5.97;;;3.35;;
43710;SDS011;29309;42.682;23.372;2023-04-29T00:14:54;7.13;;;4.15;;
43710;SDS011;29309;42.682;23.372;2023-04-29T00:17:19;7.32;;;3.53;;
43710;SDS011;29309;42.682;23.372;2023-04-29T00:19:45;6.00;;;3.03;;
43710;SDS011;29309;42.682;23.372;2023-04-29T00:22:10;6.82;;;3.55;;
43710;SDS011;29309;42.682;23.372;2023-04-29T00:24:36;6.93;;;4.00;;
43710;SDS011;29309;42.682;23.372;2023-04-29T00:27:01;7.00;;;3.33;;
43710;SDS011;29309;42.682;23.372;2023-04-29T00:29:27;9.43;;;3.83;;
43710;SDS011;29309;42.682;23.372;2023-04-29T00:31:52;7.32;;;3.53;;
43710;SDS011;29309;42.682;23.372;2023-04-29T00:34:18;10.93;;;4.40;;
43710;SDS011;29309;42.682;23.372;2023-04-29T00:36:44;11.57;;;5.13;;
43710;SDS011;29309;42.682;23.372;2023-04-29T00:39:09;12.98;;;5.60;;
43710;SDS011;29309;42.682;23.372;2023-04-29T00:41:35;9.57;;;4.63;;
43710;SDS011;29309;42.682;23.372;2023-04-29T00:44:01;7.30;;;4.57;;
43710;SDS011;29309;42.682;23.372;2023-04-29T00:46:26;8.32;;;4.40;;
43710;SDS011;29309;42.682;23.372;2023-04-29T00:48:52;12.13;;;5.32;;
43710;SDS011;29309;42.682;23.372;2023-04-29T00:51:17;10.98;;;5.00;;
43710;SDS011;29309;42.682;23.372;2023-04-29T00:53:43;9.02;;;4.20;;
43710;SDS011;29309;42.682;23.372;2023-04-29T00:56:09;9.70;;;4.57;;
43710;SDS011;29309;42.682;23.372;2023-04-29T00:58:35;8.15;;;3.50;;
43710;SDS011;29309;42.682;23.372;2023-04-29T01:01:03;11.55;;;3.83;;
43710;SDS011;29309;42.682;23.372;2023-04-29T01:03:29;4.90;;;3.15;;
43710;SDS011;29309;42.682;23.372;2023-04-29T01:06:07;8.10;;;4.00;;
43710;SDS011;29309;42.682;23.372;2023-04-29T01:08:58;5.47;;;3.47;;
43710;SDS011;29309;42.682;23.372;2023-04-29T01:11:45;5.30;;;2.85;;
43710;SDS011;29309;42.682;23.372;2023-04-29T01:14:19;9.40;;;3.03;;
43710;SDS011;29309;42.682;23.372;2023-04-29T01:16:52;6.53;;;2.95;;
43710;SDS011;29309;42.682;23.372;2023-04-29T01:22:08;6.20;;;3.65;;
43710;SDS011;29309;42.682;23.372;2023-04-29T01:24:33;8.90;;;3.67;;
43710;SDS011;29309;42.682;23.372;2023-04-29T01:27:01;6.55;;;3.25;;
43710;SDS011;29309;42.682;23.372;2023-04-29T01:29:57;7.43;;;4.72;;
43710;SDS011;29309;42.682;23.372;2023-04-29T01:32:36;5.93;;;4.15;;
43710;SDS011;29309;42.682;23.372;2023-04-29T01:35:15;9.38;;;4.85;;
43710;SDS011;29309;42.682;23.372;2023-04-29T01:38:22;7.90;;;4.40;;
43710;SDS011;29309;42.682;23.372;2023-04-29T01:43:33;10.70;;;6.25;;
43710;SDS011;29309;42.682;23.372;2023-04-29T01:46:03;16.88;;;6.38;;
43710;SDS011;29309;42.682;23.372;2023-04-29T01:48:30;12.85;;;6.25;;
43710;SDS011;29309;42.682;23.372;2023-04-29T01:50:56;12.00;;;7.00;;
43710;SDS011;29309;42.682;23.372;2023-04-29T01:53:22;11.23;;;6.25;;
43710;SDS011;29309;42.682;23.372;2023-04-29T01:55:47;14.07;;;6.95;;
43710;SDS011;29309;42.682;23.372;2023-04-29T01:58:13;26.83;;;7.57;;
43710;SDS011;29309;42.682;23.372;2023-04-29T02:00:38;14.77;;;6.95;;
43710;SDS011;29309;42.682;23.372;2023-04-29T02:03:03;14.35;;;6.18;;
43710;SDS011;29309;42.682;23.372;2023-04-29T02:05:29;12.68;;;6.40;;
43710;SDS011;29309;42.682;23.372;2023-04-29T02:07:57;15.93;;;6.32;;
43710;SDS011;29309;42.682;23.372;2023-04-29T02:10:23;14.07;;;6.32;;
43710;SDS011;29309;42.682;23.372;2023-04-29T02:12:49;9.10;;;5.53;;
43710;SDS011;29309;42.682;23.372;2023-04-29T02:15:14;12.10;;;5.43;;
43710;SDS011;29309;42.682;23.372;2023-04-29T02:17:39;16.27;;;5.82;;
43710;SDS011;29309;42.682;23.372;2023-04-29T02:20:05;14.63;;;5.53;;
43710;SDS011;29309;42.682;23.372;2023-04-29T02:22:31;11.55;;;5.07;;
43710;SDS011;29309;42.682;23.372;2023-04-29T02:24:57;10.85;;;5.45;;
43710;SDS011;29309;42.682;23.372;2023-04-29T02:27:22;10.55;;;5.72;;
43710;SDS011;29309;42.682;23.372;2023-04-29T02:29:48;10.02;;;5.88;;
43710;SDS011;29309;42.682;23.372;2023-04-29T02:32:14;9.57;;;4.78;;
43710;SDS011;29309;42.682;23.372;2023-04-29T02:34:39;13.30;;;5.38;;
43710;SDS011;29309;42.682;23.372;2023-04-29T02:37:05;9.82;;;5.32;;
43710;SDS011;29309;42.682;23.372;2023-04-29T02:39:30;9.32;;;5.13;;
43710;SDS011;29309;42.682;23.372;2023-04-29T02:41:56;13.50;;;5.32;;
43710;SDS011;29309;42.682;23.372;2023-04-29T02:44:22;12.55;;;4.75;;
43710;SDS011;29309;42.682;23.372;2023-04-29T02:46:48;12.07;;;5.03;;
43710;SDS011;29309;42.682;23.372;2023-04-29T02:49:13;8.30;;;4.85;;
43710;SDS011;29309;42.682;23.372;2023-04-29T02:51:39;14.80;;;5.32;;
43710;SDS011;29309;42.682;23.372;2023-04-29T02:54:05;16.90;;;4.70;;
43710;SDS011;29309;42.682;23.372;2023-04-29T02:56:31;12.52;;;4.72;;
43710;SDS011;29309;42.682;23.372;2023-04-29T02:58:56;6.78;;;4.18;;
43710;SDS011;29309;42.682;23.372;2023-04-29T03:01:22;12.15;;;4.35;;
43710;SDS011;29309;42.682;23.372;2023-04-29T03:03:48;10.00;;;4.53;;
43710;SDS011;29309;42.682;23.372;2023-04-29T03:06:13;11.50;;;4.82;;
43710;SDS011;29309;42.682;23.372;2023-04-29T03:08:40;10.13;;;5.13;;
43710;SDS011;29309;42.682;23.372;2023-04-29T03:11:05;6.65;;;4.88;;
43710;SDS011;29309;42.682;23.372;2023-04-29T03:13:30;11.10;;;4.55;;
43710;SDS011;29309;42.682;23.372;2023-04-29T03:15:56;9.00;;;4.82;;
43710;SDS011;29309;42.682;23.372;2023-04-29T03:18:23;9.50;;;4.97;;
43710;SDS011;29309;42.682;23.372;2023-04-29T03:20:49;7.25;;;4.50;;
43710;SDS011;29309;42.682;23.372;2023-04-29T03:23:14;11.05;;;5.00;;
43710;SDS011;29309;42.682;23.372;2023-04-29T03:25:40;8.00;;;4.53;;
43710;SDS011;29309;42.682;23.372;2023-04-29T03:28:05;8.93;;;4.90;;
43710;SDS011;29309;42.682;23.372;2023-04-29T03:30:31;7.32;;;4.45;;
43710;SDS011;29309;42.682;23.372;2023-04-29T03:32:57;7.30;;;4.53;;
43710;SDS011;29309;42.682;23.372;2023-04-29T03:35:22;11.00;;;5.05;;
43710;SDS011;29309;42.682;23.372;2023-04-29T03:37:48;10.50;;;4.55;;
43710;SDS011;29309;42.682;23.372;2023-04-29T03:40:14;9.07;;;4.88;;
43710;SDS011;29309;42.682;23.372;2023-04-29T03:42:39;8.40;;;4.53;;
43710;SDS011;29309;42.682;23.372;2023-04-29T03:45:05;10.73;;;5.28;;
43710;SDS011;29309;42.682;23.372;2023-04-29T03:47:31;9.30;;;5.28;;
43710;SDS011;29309;42.682;23.372;2023-04-29T03:49:57;14.40;;;5.90;;
43710;SDS011;29309;42.682;23.372;2023-04-29T03:52:22;9.85;;;4.80;;
43710;SDS011;29309;42.682;23.372;2023-04-29T03:54:47;9.85;;;5.18;;
43710;SDS011;29309;42.682;23.372;2023-04-29T03:57:13;7.47;;;5.07;;
43710;SDS011;29309;42.682;23.372;2023-04-29T03:59:38;11.32;;;6.10;;
43710;SDS011;29309;42.682;23.372;2023-04-29T04:02:04;14.88;;;6.72;;
43710;SDS011;29309;42.682;23.372;2023-04-29T04:04:29;17.88;;;5.72;;
43710;SDS011;29309;42.682;23.372;2023-04-29T04:06:55;15.45;;;7.22;;
43710;SDS011;29309;42.682;23.372;2023-04-29T04:09:20;15.35;;;5.55;;
43710;SDS011;29309;42.682;23.372;2023-04-29T04:11:46;10.20;;;6.28;;
43710;SDS011;29309;42.682;23.372;2023-04-29T04:14:11;13.75;;;5.35;;
43710;SDS011;29309;42.682;23.372;2023-04-29T04:16:37;12.88;;;6.32;;
43710;SDS011;29309;42.682;23.372;2023-04-29T04:19:02;13.18;;;6.60;;
43710;SDS011;29309;42.682;23.372;2023-04-29T04:21:28;14.30;;;7.00;;
43710;SDS011;29309;42.682;23.372;2023-04-29T04:23:54;19.30;;;7.55;;
43710;SDS011;29309;42.682;23.372;2023-04-29T04:26:19;19.92;;;6.75;;
43710;SDS011;29309;42.682;23.372;2023-04-29T04:28:45;23.92;;;7.22;;
43710;SDS011;29309;42.682;23.372;2023-04-29T04:31:11;13.10;;;7.22;;
43710;SDS011;29309;42.682;23.372;2023-04-29T04:33:38;17.75;;;8.48;;
43710;SDS011;29309;42.682;23.372;2023-04-29T04:36:05;23.50;;;9.90;;
43710;SDS011;29309;42.682;23.372;2023-04-29T04:38:31;26.52;;;10.27;;
43710;SDS011;29309;42.682;23.372;2023-04-29T04:40:56;23.27;;;11.70;;
43710;SDS011;29309;42.682;23.372;2023-04-29T04:43:22;25.10;;;11.57;;
43710;SDS011;29309;42.682;23.372;2023-04-29T04:45:48;23.15;;;12.02;;
43710;SDS011;29309;42.682;23.372;2023-04-29T04:48:13;19.67;;;10.52;;
43710;SDS011;29309;42.682;23.372;2023-04-29T04:50:39;21.00;;;9.32;;
43710;SDS011;29309;42.682;23.372;2023-04-29T04:53:04;15.90;;;7.43;;
43710;SDS011;29309;42.682;23.372;2023-04-29T04:55:30;14.35;;;7.28;;
43710;SDS011;29309;42.682;23.372;2023-04-29T04:57:57;17.90;;;7.68;;
43710;SDS011;29309;42.682;23.372;2023-04-29T05:00:23;23.25;;;7.93;;
43710;SDS011;29309;42.682;23.372;2023-04-29T05:02:48;17.83;;;6.43;;
43710;SDS011;29309;42.682;23.372;2023-04-29T05:05:13;17.25;;;6.82;;
43710;SDS011;29309;42.682;23.372;2023-04-29T05:07:39;11.18;;;5.72;;
43710;SDS011;29309;42.682;23.372;2023-04-29T05:10:05;18.75;;;6.95;;
43710;SDS011;29309;42.682;23.372;2023-04-29T05:12:32;10.00;;;6.00;;
43710;SDS011;29309;42.682;23.372;2023-04-29T05:14:59;13.80;;;5.93;;
43710;SDS011;29309;42.682;23.372;2023-04-29T05:17:25;14.45;;;6.13;;
43710;SDS011;29309;42.682;23.372;2023-04-29T05:19:50;15.10;;;5.68;;
43710;SDS011;29309;42.682;23.372;2023-04-29T05:22:16;9.27;;;5.18;;
43710;SDS011;29309;42.682;23.372;2023-04-29T05:24:41;11.23;;;5.82;;
43710;SDS011;29309;42.682;23.372;2023-04-29T05:27:07;16.17;;;7.82;;
43710;SDS011;29309;42.682;23.372;2023-04-29T05:29:32;12.40;;;6.15;;
43710;SDS011;29309;42.682;23.372;2023-04-29T05:31:57;11.50;;;6.43;;
43710;SDS011;29309;42.682;23.372;2023-04-29T05:34:23;11.65;;;6.18;;
43710;SDS011;29309;42.682;23.372;2023-04-29T05:36:49;10.43;;;6.70;;
43710;SDS011;29309;42.682;23.372;2023-04-29T05:39:14;13.55;;;6.63;;
43710;SDS011;29309;42.682;23.372;2023-04-29T05:41:41;12.60;;;6.70;;
43710;SDS011;29309;42.682;23.372;2023-04-29T05:44:07;26.45;;;7.85;;
43710;SDS011;29309;42.682;23.372;2023-04-29T05:46:33;15.32;;;7.32;;
43710;SDS011;29309;42.682;23.372;2023-04-29T05:48:58;17.00;;;7.53;;
43710;SDS011;29309;42.682;23.372;2023-04-29T05:51:24;20.08;;;7.82;;
43710;SDS011;29309;42.682;23.372;2023-04-29T05:53:49;16.42;;;7.22;;
43710;SDS011;29309;42.682;23.372;2023-04-29T05:56:14;19.10;;;8.10;;
43710;SDS011;29309;42.682;23.372;2023-04-29T05:58:40;12.40;;;7.40;;
43710;SDS011;29309;42.682;23.372;2023-04-29T06:01:06;17.30;;;7.85;;
43710;SDS011;29309;42.682;23.372;2023-04-29T06:03:31;10.85;;;6.35;;
43710;SDS011;29309;42.682;23.372;2023-04-29T06:05:57;11.07;;;5.60;;
43710;SDS011;29309;42.682;23.372;2023-04-29T06:08:22;16.75;;;5.90;;
43710;SDS011;29309;42.682;23.372;2023-04-29T06:10:48;10.57;;;4.85;;
43710;SDS011;29309;42.682;23.372;2023-04-29T06:13:15;11.73;;;4.82;;
43710;SDS011;29309;42.682;23.372;2023-04-29T06:15:41;14.40;;;4.90;;
43710;SDS011;29309;42.682;23.372;2023-04-29T06:18:06;11.68;;;5.85;;
43710;SDS011;29309;42.682;23.372;2023-04-29T06:20:32;8.10;;;4.95;;
43710;SDS011;29309;42.682;23.372;2023-04-29T06:22:57;11.75;;;5.38;;
43710;SDS011;29309;42.682;23.372;2023-04-29T06:25:29;12.75;;;5.70;;
43710;SDS011;29309;42.682;23.372;2023-04-29T06:27:55;12.38;;;4.95;;
43710;SDS011;29309;42.682;23.372;2023-04-29T06:30:21;9.77;;;5.55;;
43710;SDS011;29309;42.682;23.372;2023-04-29T06:32:47;12.80;;;6.80;;
43710;SDS011;29309;42.682;23.372;2023-04-29T06:35:12;9.95;;;4.82;;
43710;SDS011;29309;42.682;23.372;2023-04-29T06:37:37;8.80;;;3.97;;
43710;SDS011;29309;42.682;23.372;2023-04-29T06:40:03;10.57;;;5.05;;
43710;SDS011;29309;42.682;23.372;2023-04-29T06:42:29;8.57;;;5.97;;
43710;SDS011;29309;42.682;23.372;2023-04-29T06:44:55;8.70;;;4.55;;
43710;SDS011;29309;42.682;23.372;2023-04-29T06:47:20;7.93;;;4.60;;
43710;SDS011;29309;42.682;23.372;2023-04-29T06:49:46;9.40;;;5.30;;
43710;SDS011;29309;42.682;23.372;2023-04-29T06:52:11;9.18;;;3.95;;
43710;SDS011;29309;42.682;23.372;2023-04-29T06:54:37;13.15;;;4.20;;
43710;SDS011;29309;42.682;23.372;2023-04-29T06:57:03;7.90;;;4.13;;
43710;SDS011;29309;42.682;23.372;2023-04-29T06:59:28;9.52;;;4.10;;
43710;SDS011;29309;42.682;23.372;2023-04-29T07:01:53;9.23;;;4.05;;
43710;SDS011;29309;42.682;23.372;2023-04-29T07:04:19;7.38;;;3.95;;
43710;SDS011;29309;42.682;23.372;2023-04-29T07:06:44;6.43;;;3.85;;
43710;SDS011;29309;42.682;23.372;2023-04-29T07:09:12;5.25;;;3.47;;
43710;SDS011;29309;42.682;23.372;2023-04-29T07:11:38;10.00;;;4.05;;
43710;SDS011;29309;42.682;23.372;2023-04-29T07:14:04;8.05;;;3.60;;
43710;SDS011;29309;42.682;23.372;2023-04-29T07:16:31;10.50;;;4.32;;
43710;SDS011;29309;42.682;23.372;2023-04-29T07:18:57;6.60;;;3.45;;
43710;SDS011;29309;42.682;23.372;2023-04-29T07:21:22;12.55;;;4.40;;
43710;SDS011;29309;42.682;23.372;2023-04-29T07:23:48;7.32;;;3.53;;
43710;SDS011;29309;42.682;23.372;2023-04-29T07:26:15;10.55;;;4.60;;
43710;SDS011;29309;42.682;23.372;2023-04-29T07:28:42;9.55;;;5.28;;
43710;SDS011;29309;42.682;23.372;2023-04-29T07:31:08;14.73;;;6.53;;
43710;SDS011;29309;42.682;23.372;2023-04-29T07:33:34;8.45;;;4.10;;
43710;SDS011;29309;42.682;23.372;2023-04-29T07:35:59;9.18;;;4.05;;
43710;SDS011;29309;42.682;23.372;2023-04-29T07:38:26;11.65;;;4.38;;
43710;SDS011;29309;42.682;23.372;2023-04-29T07:40:51;12.65;;;5.90;;
43710;SDS011;29309;42.682;23.372;2023-04-29T07:43:17;8.98;;;4.07;;
43710;SDS011;29309;42.682;23.372;2023-04-29T07:45:43;11.38;;;3.85;;
43710;SDS011;29309;42.682;23.372;2023-04-29T07:48:08;5.13;;;3.67;;
43710;SDS011;29309;42.682;23.372;2023-04-29T07:50:34;13.85;;;4.22;;
43710;SDS011;29309;42.682;23.372;2023-04-29T07:53:03;10.60;;;4.03;;
43710;SDS011;29309;42.682;23.372;2023-04-29T07:55:29;8.15;;;3.72;;
43710;SDS011;29309;42.682;23.372;2023-04-29T07:57:55;5.55;;;3.78;;
43710;SDS011;29309;42.682;23.372;2023-04-29T08:00:21;10.60;;;5.78;;
43710;SDS011;29309;42.682;23.372;2023-04-29T08:02:50;6.20;;;3.88;;
43710;SDS011;29309;42.682;23.372;2023-04-29T08:05:16;5.57;;;3.33;;
43710;SDS011;29309;42.682;23.372;2023-04-29T08:07:43;6.32;;;3.40;;
43710;SDS011;29309;42.682;23.372;2023-04-29T08:10:08;15.75;;;4.18;;
43710;SDS011;29309;42.682;23.372;2023-04-29T08:12:34;20.60;;;5.90;;
43710;SDS011;29309;42.682;23.372;2023-04-29T08:15:00;6.85;;;4.03;;
43710;SDS011;29309;42.682;23.372;2023-04-29T08:17:25;13.00;;;3.88;;
43710;SDS011;29309;42.682;23.372;2023-04-29T08:19:50;4.93;;;3.55;;
43710;SDS011;29309;42.682;23.372;2023-04-29T08:22:16;9.95;;;4.13;;
43710;SDS011;29309;42.682;23.372;2023-04-29T08:24:41;6.05;;;3.85;;
43710;SDS011;29309;42.682;23.372;2023-04-29T08:27:07;8.85;;;3.45;;
43710;SDS011;29309;42.682;23.372;2023-04-29T08:29:33;4.95;;;3.10;;
43710;SDS011;29309;42.682;23.372;2023-04-29T08:32:00;5.40;;;1.92;;
43710;SDS011;29309;42.682;23.372;2023-04-29T08:34:25;5.15;;;2.10;;
43710;SDS011;29309;42.682;23.372;2023-04-29T08:36:51;9.95;;;3.13;;
43710;SDS011;29309;42.682;23.372;2023-04-29T08:39:17;4.55;;;2.42;;
43710;SDS011;29309;42.682;23.372;2023-04-29T08:41:42;5.68;;;2.75;;
43710;SDS011;29309;42.682;23.372;2023-04-29T08:44:15;5.15;;;2.65;;
43710;SDS011;29309;42.682;23.372;2023-04-29T08:46:42;5.38;;;2.75;;
43710;SDS011;29309;42.682;23.372;2023-04-29T08:49:08;31.77;;;5.43;;
43710;SDS011;29309;42.682;23.372;2023-04-29T08:51:34;6.47;;;3.45;;
43710;SDS011;29309;42.682;23.372;2023-04-29T08:53:59;10.85;;;3.25;;
43710;SDS011;29309;42.682;23.372;2023-04-29T08:56:25;5.68;;;3.90;;
43710;SDS011;29309;42.682;23.372;2023-04-29T08:58:52;9.32;;;3.13;;
43710;SDS011;29309;42.682;23.372;2023-04-29T09:01:20;12.82;;;3.95;;
43710;SDS011;29309;42.682;23.372;2023-04-29T09:03:52;10.00;;;3.20;;
43710;SDS011;29309;42.682;23.372;2023-04-29T09:06:30;4.10;;;2.70;;
43710;SDS011;29309;42.682;23.372;2023-04-29T09:08:58;5.13;;;2.50;;
43710;SDS011;29309;42.682;23.372;2023-04-29T09:11:25;11.13;;;2.72;;
43710;SDS011;29309;42.682;23.372;2023-04-29T09:13:54;4.57;;;2.50;;
43710;SDS011;29309;42.682;23.372;2023-04-29T09:16:24;8.82;;;2.50;;
43710;SDS011;29309;42.682;23.372;2023-04-29T09:18:50;3.95;;;2.42;;
43710;SDS011;29309;42.682;23.372;2023-04-29T09:23:45;7.50;;;2.05;;
43710;SDS011;29309;42.682;23.372;2023-04-29T09:26:11;8.32;;;1.92;;
43710;SDS011;29309;42.682;23.372;2023-04-29T09:28:37;5.60;;;2.38;;
43710;SDS011;29309;42.682;23.372;2023-04-29T09:31:05;8.65;;;2.13;;
43710;SDS011;29309;42.682;23.372;2023-04-29T09:33:47;4.68;;;2.50;;
43710;SDS011;29309;42.682;23.372;2023-04-29T09:36:25;3.83;;;2.55;;
43710;SDS011;29309;42.682;23.372;2023-04-29T09:39:11;6.05;;;2.45;;
43710;SDS011;29309;42.682;23.372;2023-04-29T09:44:16;6.15;;;3.10;;
43710;SDS011;29309;42.682;23.372;2023-04-29T09:46:42;6.45;;;3.38;;
43710;SDS011;29309;42.682;23.372;2023-04-29T09:49:21;5.63;;;3.30;;
43710;SDS011;29309;42.682;23.372;2023-04-29T09:51:57;5.80;;;2.92;;
43710;SDS011;29309;42.682;23.372;2023-04-29T09:54:28;10.32;;;3.47;;
43710;SDS011;29309;42.682;23.372;2023-04-29T09:56:57;7.35;;;3.97;;
43710;SDS011;29309;42.682;23.372;2023-04-29T09:59:24;13.82;;;3.25;;
43710;SDS011;29309;42.682;23.372;2023-04-29T10:01:54;7.88;;;3.40;;
43710;SDS011;29309;42.682;23.372;2023-04-29T10:04:21;7.03;;;4.07;;
43710;SDS011;29309;42.682;23.372;2023-04-29T10:06:49;7.97;;;3.20;;
43710;SDS011;29309;42.682;23.372;2023-04-29T10:09:17;7.32;;;3.17;;
43710;SDS011;29309;42.682;23.372;2023-04-29T10:11:44;9.93;;;3.15;;
43710;SDS011;29309;42.682;23.372;2023-04-29T10:14:11;6.13;;;3.10;;
43710;SDS011;29309;42.682;23.372;2023-04-29T10:16:43;8.95;;;3.53;;
43710;SDS011;29309;42.682;23.372;2023-04-29T10:19:17;12.18;;;3.00;;
43710;SDS011;29309;42.682;23.372;2023-04-29T10:21:50;12.35;;;3.08;;
43710;SDS011;29309;42.682;23.372;2023-04-29T10:24:19;5.85;;;4.03;;
43710;SDS011;29309;42.682;23.372;2023-04-29T10:26:46;5.90;;;3.17;;
43710;SDS011;29309;42.682;23.372;2023-04-29T10:29:16;5.75;;;3.03;;
43710;SDS011;29309;42.682;23.372;2023-04-29T10:31:42;4.88;;;3.08;;
43710;SDS011;29309;42.682;23.372;2023-04-29T10:34:08;5.05;;;3.60;;
43710;SDS011;29309;42.682;23.372;2023-04-29T10:36:37;6.18;;;3.50;;
43710;SDS011;29309;42.682;23.372;2023-04-29T10:39:03;5.47;;;2.83;;
43710;SDS011;29309;42.682;23.372;2023-04-29T10:41:36;8.98;;;3.30;;
43710;SDS011;29309;42.682;23.372;2023-04-29T10:44:06;6.70;;;2.67;;
43710;SDS011;29309;42.682;23.372;2023-04-29T10:46:32;5.20;;;3.22;;
43710;SDS011;29309;42.682;23.372;2023-04-29T10:49:01;15.48;;;3.85;;
43710;SDS011;29309;42.682;23.372;2023-04-29T10:51:29;6.78;;;2.80;;
43710;SDS011;29309;42.682;23.372;2023-04-29T10:54:03;7.00;;;2.90;;
43710;SDS011;29309;42.682;23.372;2023-04-29T10:56:50;5.07;;;2.80;;
43710;SDS011;29309;42.682;23.372;2023-04-29T11:01:57;6.72;;;2.55;;
43710;SDS011;29309;42.682;23.372;2023-04-29T11:04:23;6.05;;;2.17;;
43710;SDS011;29309;42.682;23.372;2023-04-29T11:06:53;4.40;;;2.05;;
43710;SDS011;29309;42.682;23.372;2023-04-29T11:09:23;5.07;;;1.98;;
43710;SDS011;29309;42.682;23.372;2023-04-29T11:11:57;4.95;;;2.60;;
43710;SDS011;29309;42.682;23.372;2023-04-29T11:17:01;6.50;;;2.45;;
43710;SDS011;29309;42.682;23.372;2023-04-29T11:19:51;5.00;;;2.00;;
43710;SDS011;29309;42.682;23.372;2023-04-29T11:24:54;3.75;;;1.98;;
43710;SDS011;29309;42.682;23.372;2023-04-29T11:27:45;5.05;;;2.55;;
43710;SDS011;29309;42.682;23.372;2023-04-29T11:30:13;4.47;;;2.17;;
43710;SDS011;29309;42.682;23.372;2023-04-29T11:32:40;4.32;;;1.83;;
43710;SDS011;29309;42.682;23.372;2023-04-29T11:35:09;4.05;;;2.00;;
43710;SDS011;29309;42.682;23.372;2023-04-29T11:37:36;5.70;;;1.90;;
43710;SDS011;29309;42.682;23.372;2023-04-29T11:40:02;7.57;;;2.30;;
43710;SDS011;29309;42.682;23.372;2023-04-29T11:42:29;4.82;;;2.08;;
43710;SDS011;29309;42.682;23.372;2023-04-29T11:44:54;8.38;;;2.10;;
43710;SDS011;29309;42.682;23.372;2023-04-29T11:47:24;4.88;;;1.58;;
43710;SDS011;29309;42.682;23.372;2023-04-29T11:50:06;5.60;;;1.60;;
43710;SDS011;29309;42.682;23.372;2023-04-29T11:52:35;4.95;;;1.58;;
43710;SDS011;29309;42.682;23.372;2023-04-29T11:55:05;2.92;;;1.60;;
43710;SDS011;29309;42.682;23.372;2023-04-29T11:57:33;2.92;;;1.42;;
43710;SDS011;29309;42.682;23.372;2023-04-29T11:59:59;3.05;;;1.40;;
43710;SDS011;29309;42.682;23.372;2023-04-29T12:02:28;7.28;;;1.70;;
43710;SDS011;29309;42.682;23.372;2023-04-29T12:04:55;2.03;;;1.52;;
43710;SDS011;29309;42.682;23.372;2023-04-29T12:07:22;6.03;;;2.40;;
43710;SDS011;29309;42.682;23.372;2023-04-29T12:09:48;3.55;;;2.08;;
43710;SDS011;29309;42.682;23.372;2023-04-29T12:12:14;4.40;;;2.08;;
43710;SDS011;29309;42.682;23.372;2023-04-29T12:14:40;5.57;;;2.03;;
43710;SDS011;29309;42.682;23.372;2023-04-29T12:17:06;3.67;;;1.52;;
43710;SDS011;29309;42.682;23.372;2023-04-29T12:19:34;8.75;;;1.95;;
43710;SDS011;29309;42.682;23.372;2023-04-29T12:22:02;4.38;;;1.35;;
43710;SDS011;29309;42.682;23.372;2023-04-29T12:24:32;3.58;;;1.70;;
43710;SDS011;29309;42.682;23.372;2023-04-29T12:27:01;1.88;;;1.42;;
43710;SDS011;29309;42.682;23.372;2023-04-29T12:29:26;2.88;;;2.13;;
43710;SDS011;29309;42.682;23.372;2023-04-29T12:31:52;5.85;;;1.63;;
43710;SDS011;29309;42.682;23.372;2023-04-29T12:34:23;2.00;;;1.35;;
43710;SDS011;29309;42.682;23.372;2023-04-29T12:36:57;6.93;;;1.30;;
43710;SDS011;29309;42.682;23.372;2023-04-29T12:39:24;3.08;;;1.30;;
43710;SDS011;29309;42.682;23.372;2023-04-29T12:42:02;4.50;;;1.50;;
43710;SDS011;29309;42.682;23.372;2023-04-29T12:44:34;6.90;;;1.50;;
43710;SDS011;29309;42.682;23.372;2023-04-29T12:47:10;17.77;;;1.73;;
43710;SDS011;29309;42.682;23.372;2023-04-29T12:49:37;4.05;;;1.40;;
43710;SDS011;29309;42.682;23.372;2023-04-29T12:52:06;6.68;;;1.60;;
43710;SDS011;29309;42.682;23.372;2023-04-29T12:54:34;5.70;;;2.10;;
43710;SDS011;29309;42.682;23.372;2023-04-29T12:57:05;6.30;;;1.95;;
43710;SDS011;29309;42.682;23.372;2023-04-29T12:59:31;6.38;;;1.67;;
43710;SDS011;29309;42.682;23.372;2023-04-29T13:01:57;5.43;;;1.85;;
43710;SDS011;29309;42.682;23.372;2023-04-29T13:04:22;3.13;;;1.65;;
43710;SDS011;29309;42.682;23.372;2023-04-29T13:06:48;2.83;;;1.50;;
43710;SDS011;29309;42.682;23.372;2023-04-29T13:09:13;4.97;;;1.42;;
43710;SDS011;29309;42.682;23.372;2023-04-29T13:11:38;4.90;;;1.70;;
43710;SDS011;29309;42.682;23.372;2023-04-29T13:14:04;3.42;;;1.30;;
43710;SDS011;29309;42.682;23.372;2023-04-29T13:16:33;4.43;;;1.48;;
43710;SDS011;29309;42.682;23.372;2023-04-29T13:19:02;5.65;;;1.88;;
43710;SDS011;29309;42.682;23.372;2023-04-29T13:21:27;2.22;;;1.42;;
43710;SDS011;29309;42.682;23.372;2023-04-29T13:23:54;2.85;;;1.52;;
43710;SDS011;29309;42.682;23.372;2023-04-29T13:26:19;3.47;;;1.30;;
43710;SDS011;29309;42.682;23.372;2023-04-29T13:28:45;3.13;;;1.23;;
43710;SDS011;29309;42.682;23.372;2023-04-29T13:31:10;3.30;;;1.50;;
43710;SDS011;29309;42.682;23.372;2023-04-29T13:33:36;6.05;;;1.75;;
43710;SDS011;29309;42.682;23.372;2023-04-29T13:36:01;2.40;;;1.48;;
43710;SDS011;29309;42.682;23.372;2023-04-29T13:38:27;3.15;;;1.48;;
43710;SDS011;29309;42.682;23.372;2023-04-29T13:40:52;5.78;;;2.72;;
43710;SDS011;29309;42.682;23.372;2023-04-29T13:43:18;7.00;;;4.03;;
43710;SDS011;29309;42.682;23.372;2023-04-29T13:45:43;8.52;;;2.53;;
43710;SDS011;29309;42.682;23.372;2023-04-29T13:48:09;2.97;;;1.60;;
43710;SDS011;29309;42.682;23.372;2023-04-29T13:50:34;5.07;;;1.30;;
43710;SDS011;29309;42.682;23.372;2023-04-29T13:53:00;7.40;;;1.40;;
43710;SDS011;29309;42.682;23.372;2023-04-29T13:55:25;1.92;;;1.00;;
43710;SDS011;29309;42.682;23.372;2023-04-29T13:57:51;5.03;;;1.63;;
43710;SDS011;29309;42.682;23.372;2023-04-29T14:00:17;3.35;;;1.45;;
43710;SDS011;29309;42.682;23.372;2023-04-29T14:02:42;2.67;;;1.30;;
43710;SDS011;29309;42.682;23.372;2023-04-29T14:05:08;5.18;;;1.80;;
43710;SDS011;29309;42.682;23.372;2023-04-29T14:07:34;2.65;;;1.42;;
43710;SDS011;29309;42.682;23.372;2023-04-29T14:10:00;1.55;;;1.05;;
43710;SDS011;29309;42.682;23.372;2023-04-29T14:12:26;2.15;;;1.10;;
43710;SDS011;29309;42.682;23.372;2023-04-29T14:14:52;2.65;;;1.30;;
43710;SDS011;29309;42.682;23.372;2023-04-29T14:17:17;1.83;;;1.02;;
43710;SDS011;29309;42.682;23.372;2023-04-29T14:19:43;3.08;;;1.38;;
43710;SDS011;29309;42.682;23.372;2023-04-29T14:22:08;3.30;;;1.55;;
43710;SDS011;29309;42.682;23.372;2023-04-29T14:24:34;2.72;;;1.60;;
43710;SDS011;29309;42.682;23.372;2023-04-29T14:26:59;2.15;;;1.40;;
43710;SDS011;29309;42.682;23.372;2023-04-29T14:29:26;2.80;;;1.60;;
43710;SDS011;29309;42.682;23.372;2023-04-29T14:31:52;2.10;;;1.67;;
43710;SDS011;29309;42.682;23.372;2023-04-29T14:34:17;3.78;;;1.30;;
43710;SDS011;29309;42.682;23.372;2023-04-29T14:36:43;3.42;;;1.50;;
43710;SDS011;29309;42.682;23.372;2023-04-29T14:39:10;3.08;;;1.13;;
43710;SDS011;29309;42.682;23.372;2023-04-29T14:41:36;5.22;;;1.50;;
43710;SDS011;29309;42.682;23.372;2023-04-29T14:44:02;3.50;;;1.20;;
43710;SDS011;29309;42.682;23.372;2023-04-29T14:46:27;2.33;;;1.77;;